sensor_id;sensor_type;location;lat;lon;timestamp;P1;durP1;ratioP1;P2;durP2;ratioP2
4595;SDS011;2310;49.978;8.742;2023-06-10T00:02:55;13.90;;;12.70;;
4595;SDS011;2310;49.978;8.742;2023-06-10T00:06:57;13.97;;;12.67;;
4595;SDS011;2310;49.978;8.742;2023-06-10T00:10:58;13.63;;;12.53;;
4595;SDS011;2310;49.978;8.742;2023-06-10T00:15:03;13.67;;;12.47;;
4595;SDS011;2310;49.978;8.742;2023-06-10T00:19:06;14.77;;;13.47;;
4595;SDS011;2310;49.978;8.742;2023-06-10T00:23:09;14.70;;;13.50;;
4595;SDS011;2310;49.978;8.742;2023-06-10T00:27:10;14.00;;;12.80;;
4595;SDS011;2310;49.978;8.742;2023-06-10T00:31:12;15.17;;;13.77;;
4595;SDS011;2310;49.978;8.742;2023-06-10T00:35:13;14.27;;;13.17;;
4595;SDS011;2310;49.978;8.742;2023-06-10T00:39:14;15.57;;;14.13;;
4595;SDS011;2310;49.978;8.742;2023-06-10T00:43:17;14.20;;;12.93;;
4595;SDS011;2310;49.978;8.742;2023-06-10T00:47:19;15.73;;;14.33;;
4595;SDS011;2310;49.978;8.742;2023-06-10T00:51:20;16.47;;;15.07;;
4595;SDS011;2310;49.978;8.742;2023-06-10T00:55:23;16.90;;;15.50;;
4595;SDS011;2310;49.978;8.742;2023-06-10T00:59:26;16.27;;;14.90;;
4595;SDS011;2310;49.978;8.742;2023-06-10T01:03:30;16.83;;;15.33;;
4595;SDS011;2310;49.978;8.742;2023-06-10T01:12:10;17.20;;;14.73;;
4595;SDS011;2310;49.978;8.742;2023-06-10T01:16:21;16.90;;;15.40;;
4595;SDS011;2310;49.978;8.742;2023-06-10T01:20:23;16.57;;;15.07;;
4595;SDS011;2310;49.978;8.742;2023-06-10T01:24:28;16.27;;;14.77;;
4595;SDS011;2310;49.978;8.742;2023-06-10T01:28:31;16.57;;;15.17;;
4595;SDS011;2310;49.978;8.742;2023-06-10T01:32:36;17.40;;;15.90;;
4595;SDS011;2310;49.978;8.742;2023-06-10T01:36:41;14.97;;;13.77;;
4595;SDS011;2310;49.978;8.742;2023-06-10T01:40:48;16.27;;;14.80;;
4595;SDS011;2310;49.978;8.742;2023-06-10T01:44:51;17.13;;;15.70;;
4595;SDS011;2310;49.978;8.742;2023-06-10T01:48:53;16.83;;;15.43;;
4595;SDS011;2310;49.978;8.742;2023-06-10T01:52:56;15.90;;;14.50;;
4595;SDS011;2310;49.978;8.742;2023-06-10T01:56:58;16.13;;;14.83;;
4595;SDS011;2310;49.978;8.742;2023-06-10T02:01:00;17.07;;;15.57;;
4595;SDS011;2310;49.978;8.742;2023-06-10T02:05:03;17.73;;;16.23;;
4595;SDS011;2310;49.978;8.742;2023-06-10T02:09:07;16.57;;;15.07;;
4595;SDS011;2310;49.978;8.742;2023-06-10T02:13:08;17.73;;;16.13;;
4595;SDS011;2310;49.978;8.742;2023-06-10T02:17:10;16.47;;;15.13;;
4595;SDS011;2310;49.978;8.742;2023-06-10T02:21:13;14.97;;;13.57;;
4595;SDS011;2310;49.978;8.742;2023-06-10T02:25:14;16.60;;;15.07;;
4595;SDS011;2310;49.978;8.742;2023-06-10T02:29:16;17.00;;;15.50;;
4595;SDS011;2310;49.978;8.742;2023-06-10T02:33:17;16.50;;;15.10;;
4595;SDS011;2310;49.978;8.742;2023-06-10T02:37:19;14.93;;;13.63;;
4595;SDS011;2310;49.978;8.742;2023-06-10T02:41:21;15.33;;;14.00;;
4595;SDS011;2310;49.978;8.742;2023-06-10T02:45:22;15.37;;;14.00;;
4595;SDS011;2310;49.978;8.742;2023-06-10T02:49:24;15.03;;;13.67;;
4595;SDS011;2310;49.978;8.742;2023-06-10T02:53:25;15.57;;;14.17;;
4595;SDS011;2310;49.978;8.742;2023-06-10T02:57:26;15.53;;;14.10;;
4595;SDS011;2310;49.978;8.742;2023-06-10T03:01:28;15.47;;;14.03;;
4595;SDS011;2310;49.978;8.742;2023-06-10T03:05:30;15.40;;;13.90;;
4595;SDS011;2310;49.978;8.742;2023-06-10T03:09:31;14.63;;;13.33;;
4595;SDS011;2310;49.978;8.742;2023-06-10T03:13:32;15.80;;;14.40;;
4595;SDS011;2310;49.978;8.742;2023-06-10T03:17:34;15.30;;;13.73;;
4595;SDS011;2310;49.978;8.742;2023-06-10T03:21:35;15.97;;;14.47;;
4595;SDS011;2310;49.978;8.742;2023-06-10T03:25:38;14.43;;;13.23;;
4595;SDS011;2310;49.978;8.742;2023-06-10T03:29:39;13.83;;;12.53;;
4595;SDS011;2310;49.978;8.742;2023-06-10T03:33:41;14.53;;;13.13;;
4595;SDS011;2310;49.978;8.742;2023-06-10T03:37:42;14.70;;;13.20;;
4595;SDS011;2310;49.978;8.742;2023-06-10T03:41:45;13.97;;;12.60;;
4595;SDS011;2310;49.978;8.742;2023-06-10T03:45:46;13.87;;;12.33;;
4595;SDS011;2310;49.978;8.742;2023-06-10T03:49:49;14.87;;;13.33;;
4595;SDS011;2310;49.978;8.742;2023-06-10T03:53:50;17.93;;;13.27;;
4595;SDS011;2310;49.978;8.742;2023-06-10T03:57:51;15.10;;;13.50;;
4595;SDS011;2310;49.978;8.742;2023-06-10T04:01:53;15.00;;;13.50;;
4595;SDS011;2310;49.978;8.742;2023-06-10T04:05:55;14.20;;;12.90;;
4595;SDS011;2310;49.978;8.742;2023-06-10T04:09:56;14.87;;;13.47;;
4595;SDS011;2310;49.978;8.742;2023-06-10T04:13:59;14.30;;;12.80;;
4595;SDS011;2310;49.978;8.742;2023-06-10T04:18:00;13.50;;;12.20;;
4595;SDS011;2310;49.978;8.742;2023-06-10T04:22:05;14.83;;;13.50;;
4595;SDS011;2310;49.978;8.742;2023-06-10T04:26:07;14.80;;;13.40;;
4595;SDS011;2310;49.978;8.742;2023-06-10T04:30:08;14.70;;;13.00;;
4595;SDS011;2310;49.978;8.742;2023-06-10T04:34:10;13.43;;;12.23;;
4595;SDS011;2310;49.978;8.742;2023-06-10T04:38:12;13.30;;;12.20;;
4595;SDS011;2310;49.978;8.742;2023-06-10T04:42:13;12.87;;;11.70;;
4595;SDS011;2310;49.978;8.742;2023-06-10T04:46:15;13.20;;;12.00;;
4595;SDS011;2310;49.978;8.742;2023-06-10T04:50:16;13.47;;;12.17;;
4595;SDS011;2310;49.978;8.742;2023-06-10T04:54:17;11.47;;;10.47;;
4595;SDS011;2310;49.978;8.742;2023-06-10T04:58:19;12.33;;;11.20;;
4595;SDS011;2310;49.978;8.742;2023-06-10T05:02:20;12.10;;;11.10;;
4595;SDS011;2310;49.978;8.742;2023-06-10T05:06:21;13.00;;;11.70;;
4595;SDS011;2310;49.978;8.742;2023-06-10T05:10:24;17.80;;;11.97;;
4595;SDS011;2310;49.978;8.742;2023-06-10T05:14:25;12.53;;;11.10;;
4595;SDS011;2310;49.978;8.742;2023-06-10T05:18:27;12.50;;;11.20;;
4595;SDS011;2310;49.978;8.742;2023-06-10T05:22:28;15.20;;;12.20;;
4595;SDS011;2310;49.978;8.742;2023-06-10T05:26:29;13.40;;;12.10;;
4595;SDS011;2310;49.978;8.742;2023-06-10T05:30:32;12.17;;;10.97;;
4595;SDS011;2310;49.978;8.742;2023-06-10T05:34:34;12.87;;;11.47;;
4595;SDS011;2310;49.978;8.742;2023-06-10T05:38:35;13.03;;;11.83;;
4595;SDS011;2310;49.978;8.742;2023-06-10T05:42:36;11.50;;;10.50;;
4595;SDS011;2310;49.978;8.742;2023-06-10T05:46:38;12.50;;;11.40;;
4595;SDS011;2310;49.978;8.742;2023-06-10T05:50:39;12.23;;;11.20;;
4595;SDS011;2310;49.978;8.742;2023-06-10T05:54:42;12.23;;;11.13;;
4595;SDS011;2310;49.978;8.742;2023-06-10T05:58:44;11.83;;;10.40;;
4595;SDS011;2310;49.978;8.742;2023-06-10T06:02:45;11.57;;;10.37;;
4595;SDS011;2310;49.978;8.742;2023-06-10T06:06:47;12.57;;;11.43;;
4595;SDS011;2310;49.978;8.742;2023-06-10T06:10:48;11.77;;;10.60;;
4595;SDS011;2310;49.978;8.742;2023-06-10T06:14:49;15.47;;;11.97;;
4595;SDS011;2310;49.978;8.742;2023-06-10T06:18:51;13.20;;;11.90;;
4595;SDS011;2310;49.978;8.742;2023-06-10T06:22:52;12.90;;;11.67;;
4595;SDS011;2310;49.978;8.742;2023-06-10T06:26:53;13.53;;;12.33;;
4595;SDS011;2310;49.978;8.742;2023-06-10T06:30:55;12.67;;;11.47;;
4595;SDS011;2310;49.978;8.742;2023-06-10T06:34:57;12.40;;;11.03;;
4595;SDS011;2310;49.978;8.742;2023-06-10T06:38:59;11.73;;;10.70;;
4595;SDS011;2310;49.978;8.742;2023-06-10T06:43:01;12.53;;;11.37;;
4595;SDS011;2310;49.978;8.742;2023-06-10T06:47:02;13.73;;;12.33;;
4595;SDS011;2310;49.978;8.742;2023-06-10T06:51:04;12.17;;;11.07;;
4595;SDS011;2310;49.978;8.742;2023-06-10T06:55:06;11.97;;;10.87;;
4595;SDS011;2310;49.978;8.742;2023-06-10T06:59:09;12.17;;;11.07;;
4595;SDS011;2310;49.978;8.742;2023-06-10T07:03:11;11.10;;;10.13;;
4595;SDS011;2310;49.978;8.742;2023-06-10T07:07:12;13.83;;;12.40;;
4595;SDS011;2310;49.978;8.742;2023-06-10T07:11:13;11.90;;;10.90;;
4595;SDS011;2310;49.978;8.742;2023-06-10T07:15:15;11.93;;;10.87;;
4595;SDS011;2310;49.978;8.742;2023-06-10T07:19:16;11.77;;;10.67;;
4595;SDS011;2310;49.978;8.742;2023-06-10T07:23:17;10.87;;;9.80;;
4595;SDS011;2310;49.978;8.742;2023-06-10T07:27:19;12.80;;;11.60;;
4595;SDS011;2310;49.978;8.742;2023-06-10T07:31:20;12.77;;;10.47;;
4595;SDS011;2310;49.978;8.742;2023-06-10T07:35:22;11.67;;;10.67;;
4595;SDS011;2310;49.978;8.742;2023-06-10T07:39:24;11.43;;;10.43;;
4595;SDS011;2310;49.978;8.742;2023-06-10T07:43:26;12.00;;;10.90;;
4595;SDS011;2310;49.978;8.742;2023-06-10T07:47:28;14.00;;;12.27;;
4595;SDS011;2310;49.978;8.742;2023-06-10T07:51:30;13.80;;;12.50;;
4595;SDS011;2310;49.978;8.742;2023-06-10T07:55:31;17.73;;;11.47;;
4595;SDS011;2310;49.978;8.742;2023-06-10T07:59:33;13.60;;;12.20;;
4595;SDS011;2310;49.978;8.742;2023-06-10T08:03:35;11.80;;;10.80;;
4595;SDS011;2310;49.978;8.742;2023-06-10T08:07:36;12.20;;;11.00;;
4595;SDS011;2310;49.978;8.742;2023-06-10T08:11:40;11.47;;;10.47;;
4595;SDS011;2310;49.978;8.742;2023-06-10T08:15:41;11.57;;;10.57;;
4595;SDS011;2310;49.978;8.742;2023-06-10T08:19:42;12.30;;;11.30;;
4595;SDS011;2310;49.978;8.742;2023-06-10T08:23:45;12.07;;;11.03;;
4595;SDS011;2310;49.978;8.742;2023-06-10T08:27:47;12.57;;;11.37;;
4595;SDS011;2310;49.978;8.742;2023-06-10T08:31:49;12.80;;;10.77;;
4595;SDS011;2310;49.978;8.742;2023-06-10T08:35:51;12.43;;;11.43;;
4595;SDS011;2310;49.978;8.742;2023-06-10T08:39:53;12.47;;;11.20;;
4595;SDS011;2310;49.978;8.742;2023-06-10T08:48:07;15.03;;;13.83;;
4595;SDS011;2310;49.978;8.742;2023-06-10T08:52:10;15.53;;;11.80;;
4595;SDS011;2310;49.978;8.742;2023-06-10T08:56:16;13.53;;;12.17;;
4595;SDS011;2310;49.978;8.742;2023-06-10T09:00:19;11.83;;;10.80;;
4595;SDS011;2310;49.978;8.742;2023-06-10T09:04:21;11.67;;;10.57;;
4595;SDS011;2310;49.978;8.742;2023-06-10T09:08:26;13.13;;;12.07;;
4595;SDS011;2310;49.978;8.742;2023-06-10T09:12:27;12.73;;;11.63;;
4595;SDS011;2310;49.978;8.742;2023-06-10T09:16:29;12.03;;;11.03;;
4595;SDS011;2310;49.978;8.742;2023-06-10T09:20:30;12.47;;;11.37;;
4595;SDS011;2310;49.978;8.742;2023-06-10T09:24:31;12.27;;;11.27;;
4595;SDS011;2310;49.978;8.742;2023-06-10T09:28:33;11.80;;;10.80;;
4595;SDS011;2310;49.978;8.742;2023-06-10T09:32:40;11.70;;;10.80;;
4595;SDS011;2310;49.978;8.742;2023-06-10T09:36:42;11.73;;;10.57;;
4595;SDS011;2310;49.978;8.742;2023-06-10T09:40:50;11.87;;;10.80;;
4595;SDS011;2310;49.978;8.742;2023-06-10T09:44:56;11.87;;;10.60;;
4595;SDS011;2310;49.978;8.742;2023-06-10T09:48:57;11.67;;;10.60;;
4595;SDS011;2310;49.978;8.742;2023-06-10T09:52:59;11.00;;;10.10;;
4595;SDS011;2310;49.978;8.742;2023-06-10T09:57:01;10.70;;;9.07;;
4595;SDS011;2310;49.978;8.742;2023-06-10T10:01:10;10.50;;;9.60;;
4595;SDS011;2310;49.978;8.742;2023-06-10T10:05:13;9.77;;;9.00;;
4595;SDS011;2310;49.978;8.742;2023-06-10T10:09:16;10.50;;;9.63;;
4595;SDS011;2310;49.978;8.742;2023-06-10T10:13:18;10.33;;;9.47;;
4595;SDS011;2310;49.978;8.742;2023-06-10T10:17:20;9.50;;;8.60;;
4595;SDS011;2310;49.978;8.742;2023-06-10T10:21:26;12.43;;;10.97;;
4595;SDS011;2310;49.978;8.742;2023-06-10T10:25:28;10.50;;;9.53;;
4595;SDS011;2310;49.978;8.742;2023-06-10T10:29:39;11.10;;;10.00;;
4595;SDS011;2310;49.978;8.742;2023-06-10T10:37:58;11.03;;;10.03;;
4595;SDS011;2310;49.978;8.742;2023-06-10T10:42:00;10.03;;;9.03;;
4595;SDS011;2310;49.978;8.742;2023-06-10T10:46:08;9.17;;;8.20;;
4595;SDS011;2310;49.978;8.742;2023-06-10T10:50:17;8.47;;;7.70;;
4595;SDS011;2310;49.978;8.742;2023-06-10T10:54:21;7.70;;;7.10;;
4595;SDS011;2310;49.978;8.742;2023-06-10T10:58:31;7.03;;;6.33;;
4595;SDS011;2310;49.978;8.742;2023-06-10T11:06:39;8.97;;;7.20;;
4595;SDS011;2310;49.978;8.742;2023-06-10T11:10:41;8.50;;;7.40;;
4595;SDS011;2310;49.978;8.742;2023-06-10T11:14:54;7.23;;;6.60;;
4595;SDS011;2310;49.978;8.742;2023-06-10T11:18:56;6.37;;;5.77;;
4595;SDS011;2310;49.978;8.742;2023-06-10T11:22:58;8.87;;;6.20;;
4595;SDS011;2310;49.978;8.742;2023-06-10T11:31:21;7.03;;;6.33;;
4595;SDS011;2310;49.978;8.742;2023-06-10T11:35:24;6.17;;;5.57;;
4595;SDS011;2310;49.978;8.742;2023-06-10T11:39:27;6.10;;;5.20;;
4595;SDS011;2310;49.978;8.742;2023-06-10T11:43:28;49.00;;;14.70;;
4595;SDS011;2310;49.978;8.742;2023-06-10T11:47:31;6.10;;;5.50;;
4595;SDS011;2310;49.978;8.742;2023-06-10T11:51:33;6.33;;;5.73;;
4595;SDS011;2310;49.978;8.742;2023-06-10T11:55:44;6.43;;;5.80;;
4595;SDS011;2310;49.978;8.742;2023-06-10T11:59:44;7.00;;;5.87;;
4595;SDS011;2310;49.978;8.742;2023-06-10T12:03:45;7.30;;;6.40;;
4595;SDS011;2310;49.978;8.742;2023-06-10T12:07:47;6.77;;;6.07;;
4595;SDS011;2310;49.978;8.742;2023-06-10T12:11:49;6.73;;;6.03;;
4595;SDS011;2310;49.978;8.742;2023-06-10T12:16:08;6.87;;;6.27;;
4595;SDS011;2310;49.978;8.742;2023-06-10T12:20:26;6.73;;;6.03;;
4595;SDS011;2310;49.978;8.742;2023-06-10T12:24:29;7.50;;;6.80;;
4595;SDS011;2310;49.978;8.742;2023-06-10T12:28:30;7.90;;;7.20;;
4595;SDS011;2310;49.978;8.742;2023-06-10T12:32:44;9.23;;;6.53;;
4595;SDS011;2310;49.978;8.742;2023-06-10T12:36:50;8.23;;;7.20;;
4595;SDS011;2310;49.978;8.742;2023-06-10T12:40:53;13.30;;;12.10;;
4595;SDS011;2310;49.978;8.742;2023-06-10T12:44:54;8.10;;;7.30;;
4595;SDS011;2310;49.978;8.742;2023-06-10T12:48:58;7.63;;;6.93;;
4595;SDS011;2310;49.978;8.742;2023-06-10T12:53:01;8.60;;;7.67;;
4595;SDS011;2310;49.978;8.742;2023-06-10T12:57:02;8.17;;;7.37;;
4595;SDS011;2310;49.978;8.742;2023-06-10T13:01:04;8.37;;;7.57;;
4595;SDS011;2310;49.978;8.742;2023-06-10T13:05:06;8.27;;;7.57;;
4595;SDS011;2310;49.978;8.742;2023-06-10T13:09:11;8.90;;;8.10;;
4595;SDS011;2310;49.978;8.742;2023-06-10T13:13:12;9.33;;;8.53;;
4595;SDS011;2310;49.978;8.742;2023-06-10T13:17:15;8.47;;;7.73;;
4595;SDS011;2310;49.978;8.742;2023-06-10T13:21:16;7.87;;;7.20;;
4595;SDS011;2310;49.978;8.742;2023-06-10T13:25:17;7.93;;;7.23;;
4595;SDS011;2310;49.978;8.742;2023-06-10T13:29:20;9.40;;;8.50;;
4595;SDS011;2310;49.978;8.742;2023-06-10T13:33:23;8.77;;;7.97;;
4595;SDS011;2310;49.978;8.742;2023-06-10T13:37:25;7.43;;;6.67;;
4595;SDS011;2310;49.978;8.742;2023-06-10T13:41:26;13.57;;;12.10;;
4595;SDS011;2310;49.978;8.742;2023-06-10T13:45:29;11.67;;;10.67;;
4595;SDS011;2310;49.978;8.742;2023-06-10T13:49:32;12.80;;;11.30;;
4595;SDS011;2310;49.978;8.742;2023-06-10T13:53:33;13.90;;;12.70;;
4595;SDS011;2310;49.978;8.742;2023-06-10T13:57:35;11.60;;;10.50;;
4595;SDS011;2310;49.978;8.742;2023-06-10T14:01:37;15.60;;;14.30;;
4595;SDS011;2310;49.978;8.742;2023-06-10T14:05:39;11.90;;;10.90;;
4595;SDS011;2310;49.978;8.742;2023-06-10T14:09:41;8.17;;;7.37;;
4595;SDS011;2310;49.978;8.742;2023-06-10T14:13:42;8.53;;;7.70;;
4595;SDS011;2310;49.978;8.742;2023-06-10T14:17:43;8.50;;;7.80;;
4595;SDS011;2310;49.978;8.742;2023-06-10T14:21:47;8.47;;;7.77;;
4595;SDS011;2310;49.978;8.742;2023-06-10T14:25:51;8.67;;;7.77;;
4595;SDS011;2310;49.978;8.742;2023-06-10T14:29:53;9.30;;;8.47;;
4595;SDS011;2310;49.978;8.742;2023-06-10T14:33:56;8.87;;;8.07;;
4595;SDS011;2310;49.978;8.742;2023-06-10T14:37:58;8.90;;;8.17;;
4595;SDS011;2310;49.978;8.742;2023-06-10T14:42:00;8.60;;;7.90;;
4595;SDS011;2310;49.978;8.742;2023-06-10T14:46:02;8.77;;;7.97;;
4595;SDS011;2310;49.978;8.742;2023-06-10T14:50:05;9.07;;;8.13;;
4595;SDS011;2310;49.978;8.742;2023-06-10T14:54:07;7.70;;;7.00;;
4595;SDS011;2310;49.978;8.742;2023-06-10T14:58:08;8.53;;;7.80;;
4595;SDS011;2310;49.978;8.742;2023-06-10T15:02:12;8.60;;;7.70;;
4595;SDS011;2310;49.978;8.742;2023-06-10T15:06:13;8.47;;;7.70;;
4595;SDS011;2310;49.978;8.742;2023-06-10T15:10:16;8.20;;;7.43;;
4595;SDS011;2310;49.978;8.742;2023-06-10T15:14:21;6.83;;;6.20;;
4595;SDS011;2310;49.978;8.742;2023-06-10T15:18:23;8.60;;;7.80;;
4595;SDS011;2310;49.978;8.742;2023-06-10T15:22:25;8.00;;;7.20;;
4595;SDS011;2310;49.978;8.742;2023-06-10T15:26:27;6.60;;;6.00;;
4595;SDS011;2310;49.978;8.742;2023-06-10T15:30:31;7.60;;;6.70;;
4595;SDS011;2310;49.978;8.742;2023-06-10T15:34:33;7.63;;;6.83;;
4595;SDS011;2310;49.978;8.742;2023-06-10T15:38:34;7.70;;;6.90;;
4595;SDS011;2310;49.978;8.742;2023-06-10T15:42:35;6.60;;;6.00;;
4595;SDS011;2310;49.978;8.742;2023-06-10T15:46:37;8.20;;;6.57;;
4595;SDS011;2310;49.978;8.742;2023-06-10T15:50:38;6.63;;;6.03;;
4595;SDS011;2310;49.978;8.742;2023-06-10T15:54:41;7.30;;;6.60;;
4595;SDS011;2310;49.978;8.742;2023-06-10T15:58:42;6.63;;;6.03;;
4595;SDS011;2310;49.978;8.742;2023-06-10T16:02:46;6.50;;;5.90;;
4595;SDS011;2310;49.978;8.742;2023-06-10T16:06:48;6.80;;;6.03;;
4595;SDS011;2310;49.978;8.742;2023-06-10T16:10:51;6.67;;;6.07;;
4595;SDS011;2310;49.978;8.742;2023-06-10T16:14:52;6.43;;;5.83;;
4595;SDS011;2310;49.978;8.742;2023-06-10T16:18:54;7.30;;;6.60;;
4595;SDS011;2310;49.978;8.742;2023-06-10T16:22:56;7.20;;;6.30;;
4595;SDS011;2310;49.978;8.742;2023-06-10T16:26:58;6.77;;;6.13;;
4595;SDS011;2310;49.978;8.742;2023-06-10T16:30:59;7.67;;;6.97;;
4595;SDS011;2310;49.978;8.742;2023-06-10T16:35:01;7.20;;;6.60;;
4595;SDS011;2310;49.978;8.742;2023-06-10T16:39:02;8.90;;;8.00;;
4595;SDS011;2310;49.978;8.742;2023-06-10T16:43:04;8.70;;;7.07;;
4595;SDS011;2310;49.978;8.742;2023-06-10T16:47:06;11.43;;;7.30;;
4595;SDS011;2310;49.978;8.742;2023-06-10T16:51:07;8.73;;;7.93;;
4595;SDS011;2310;49.978;8.742;2023-06-10T16:55:09;8.53;;;6.90;;
4595;SDS011;2310;49.978;8.742;2023-06-10T16:59:10;8.80;;;7.63;;
4595;SDS011;2310;49.978;8.742;2023-06-10T17:03:12;8.80;;;7.90;;
4595;SDS011;2310;49.978;8.742;2023-06-10T17:07:15;9.03;;;7.43;;
4595;SDS011;2310;49.978;8.742;2023-06-10T17:11:17;7.43;;;6.83;;
4595;SDS011;2310;49.978;8.742;2023-06-10T17:15:19;7.87;;;7.07;;
4595;SDS011;2310;49.978;8.742;2023-06-10T17:19:21;7.97;;;7.20;;
4595;SDS011;2310;49.978;8.742;2023-06-10T17:23:23;7.20;;;6.03;;
4595;SDS011;2310;49.978;8.742;2023-06-10T17:27:24;9.27;;;8.47;;
4595;SDS011;2310;49.978;8.742;2023-06-10T17:31:26;7.70;;;6.40;;
4595;SDS011;2310;49.978;8.742;2023-06-10T17:35:28;7.50;;;6.80;;
4595;SDS011;2310;49.978;8.742;2023-06-10T17:39:29;8.17;;;7.47;;
4595;SDS011;2310;49.978;8.742;2023-06-10T17:43:31;8.17;;;7.03;;
4595;SDS011;2310;49.978;8.742;2023-06-10T17:47:34;8.37;;;7.57;;
4595;SDS011;2310;49.978;8.742;2023-06-10T17:51:40;8.20;;;7.50;;
4595;SDS011;2310;49.978;8.742;2023-06-10T17:55:41;7.90;;;7.10;;
4595;SDS011;2310;49.978;8.742;2023-06-10T17:59:43;7.83;;;7.13;;
4595;SDS011;2310;49.978;8.742;2023-06-10T18:03:44;7.53;;;6.87;;
4595;SDS011;2310;49.978;8.742;2023-06-10T18:07:45;8.73;;;7.93;;
4595;SDS011;2310;49.978;8.742;2023-06-10T18:11:47;9.27;;;8.47;;
4595;SDS011;2310;49.978;8.742;2023-06-10T18:15:48;9.53;;;8.60;;
4595;SDS011;2310;49.978;8.742;2023-06-10T18:19:50;9.70;;;8.80;;
4595;SDS011;2310;49.978;8.742;2023-06-10T18:23:53;10.43;;;9.50;;
4595;SDS011;2310;49.978;8.742;2023-06-10T18:27:55;9.07;;;8.30;;
4595;SDS011;2310;49.978;8.742;2023-06-10T18:31:56;9.97;;;9.07;;
4595;SDS011;2310;49.978;8.742;2023-06-10T18:36:00;9.60;;;8.80;;
4595;SDS011;2310;49.978;8.742;2023-06-10T18:40:01;13.37;;;9.90;;
4595;SDS011;2310;49.978;8.742;2023-06-10T18:44:03;11.00;;;10.10;;
4595;SDS011;2310;49.978;8.742;2023-06-10T18:48:05;11.80;;;10.60;;
4595;SDS011;2310;49.978;8.742;2023-06-10T18:52:06;13.60;;;12.40;;
4595;SDS011;2310;49.978;8.742;2023-06-10T18:56:08;11.27;;;10.20;;
4595;SDS011;2310;49.978;8.742;2023-06-10T19:00:12;11.80;;;10.80;;
4595;SDS011;2310;49.978;8.742;2023-06-10T19:04:14;10.77;;;9.67;;
4595;SDS011;2310;49.978;8.742;2023-06-10T19:08:15;11.03;;;10.13;;
4595;SDS011;2310;49.978;8.742;2023-06-10T19:12:17;10.53;;;9.63;;
4595;SDS011;2310;49.978;8.742;2023-06-10T19:16:20;10.97;;;9.87;;
4595;SDS011;2310;49.978;8.742;2023-06-10T19:20:22;9.87;;;8.87;;
4595;SDS011;2310;49.978;8.742;2023-06-10T19:24:23;11.70;;;10.70;;
4595;SDS011;2310;49.978;8.742;2023-06-10T19:28:25;11.17;;;10.07;;
4595;SDS011;2310;49.978;8.742;2023-06-10T19:32:26;10.67;;;9.73;;
4595;SDS011;2310;49.978;8.742;2023-06-10T19:36:28;11.23;;;9.70;;
4595;SDS011;2310;49.978;8.742;2023-06-10T19:40:30;10.70;;;9.70;;
4595;SDS011;2310;49.978;8.742;2023-06-10T19:44:31;12.77;;;11.43;;
4595;SDS011;2310;49.978;8.742;2023-06-10T19:48:32;14.20;;;12.90;;
4595;SDS011;2310;49.978;8.742;2023-06-10T19:52:34;12.90;;;11.80;;
4595;SDS011;2310;49.978;8.742;2023-06-10T19:56:35;11.90;;;10.80;;
4595;SDS011;2310;49.978;8.742;2023-06-10T20:00:37;12.40;;;11.30;;
4595;SDS011;2310;49.978;8.742;2023-06-10T20:04:38;11.27;;;10.33;;
4595;SDS011;2310;49.978;8.742;2023-06-10T20:08:40;11.53;;;10.53;;
4595;SDS011;2310;49.978;8.742;2023-06-10T20:12:43;10.97;;;10.10;;
4595;SDS011;2310;49.978;8.742;2023-06-10T20:16:45;13.93;;;12.73;;
4595;SDS011;2310;49.978;8.742;2023-06-10T20:20:47;13.90;;;11.87;;
4595;SDS011;2310;49.978;8.742;2023-06-10T20:24:49;11.20;;;10.10;;
4595;SDS011;2310;49.978;8.742;2023-06-10T20:28:53;10.67;;;9.67;;
4595;SDS011;2310;49.978;8.742;2023-06-10T20:32:55;13.33;;;11.63;;
4595;SDS011;2310;49.978;8.742;2023-06-10T20:36:56;12.60;;;11.40;;
4595;SDS011;2310;49.978;8.742;2023-06-10T20:40:58;11.43;;;10.43;;
4595;SDS011;2310;49.978;8.742;2023-06-10T20:45:00;14.00;;;12.80;;
4595;SDS011;2310;49.978;8.742;2023-06-10T20:49:01;12.67;;;11.50;;
4595;SDS011;2310;49.978;8.742;2023-06-10T20:53:03;14.90;;;11.90;;
4595;SDS011;2310;49.978;8.742;2023-06-10T20:57:04;12.07;;;10.87;;
4595;SDS011;2310;49.978;8.742;2023-06-10T21:01:07;11.93;;;10.93;;
4595;SDS011;2310;49.978;8.742;2023-06-10T21:05:10;12.30;;;11.20;;
4595;SDS011;2310;49.978;8.742;2023-06-10T21:09:13;13.23;;;12.00;;
4595;SDS011;2310;49.978;8.742;2023-06-10T21:13:14;12.03;;;10.93;;
4595;SDS011;2310;49.978;8.742;2023-06-10T21:17:16;12.57;;;11.53;;
4595;SDS011;2310;49.978;8.742;2023-06-10T21:21:18;11.03;;;10.03;;
4595;SDS011;2310;49.978;8.742;2023-06-10T21:25:20;12.37;;;11.37;;
4595;SDS011;2310;49.978;8.742;2023-06-10T21:29:23;12.03;;;11.03;;
4595;SDS011;2310;49.978;8.742;2023-06-10T21:33:24;13.20;;;11.90;;
4595;SDS011;2310;49.978;8.742;2023-06-10T21:37:27;13.40;;;12.10;;
4595;SDS011;2310;49.978;8.742;2023-06-10T21:41:34;12.70;;;11.50;;
4595;SDS011;2310;49.978;8.742;2023-06-10T21:45:36;13.27;;;11.93;;
4595;SDS011;2310;49.978;8.742;2023-06-10T21:49:37;12.63;;;11.53;;
4595;SDS011;2310;49.978;8.742;2023-06-10T21:53:39;12.80;;;11.50;;
4595;SDS011;2310;49.978;8.742;2023-06-10T21:57:41;13.00;;;11.80;;
4595;SDS011;2310;49.978;8.742;2023-06-10T22:01:42;12.10;;;11.00;;
4595;SDS011;2310;49.978;8.742;2023-06-10T22:05:44;12.93;;;11.80;;
4595;SDS011;2310;49.978;8.742;2023-06-10T22:09:46;13.10;;;12.00;;
4595;SDS011;2310;49.978;8.742;2023-06-10T22:13:49;11.20;;;10.30;;
4595;SDS011;2310;49.978;8.742;2023-06-10T22:17:51;12.33;;;11.03;;
4595;SDS011;2310;49.978;8.742;2023-06-10T22:21:52;12.50;;;11.20;;
4595;SDS011;2310;49.978;8.742;2023-06-10T22:25:54;12.20;;;11.10;;
4595;SDS011;2310;49.978;8.742;2023-06-10T22:29:55;11.27;;;10.33;;
4595;SDS011;2310;49.978;8.742;2023-06-10T22:33:57;13.10;;;11.87;;
4595;SDS011;2310;49.978;8.742;2023-06-10T22:37:58;12.07;;;11.00;;
4595;SDS011;2310;49.978;8.742;2023-06-10T22:42:00;11.70;;;10.50;;
4595;SDS011;2310;49.978;8.742;2023-06-10T22:46:01;11.13;;;10.03;;
4595;SDS011;2310;49.978;8.742;2023-06-10T22:50:03;13.17;;;11.50;;
4595;SDS011;2310;49.978;8.742;2023-06-10T22:54:05;12.03;;;11.03;;
4595;SDS011;2310;49.978;8.742;2023-06-10T22:58:06;13.53;;;10.70;;
4595;SDS011;2310;49.978;8.742;2023-06-10T23:02:07;13.83;;;12.60;;
4595;SDS011;2310;49.978;8.742;2023-06-10T23:06:09;12.10;;;11.00;;
4595;SDS011;2310;49.978;8.742;2023-06-10T23:10:10;12.33;;;11.20;;
4595;SDS011;2310;49.978;8.742;2023-06-10T23:14:12;18.50;;;12.33;;
4595;SDS011;2310;49.978;8.742;2023-06-10T23:18:13;12.47;;;11.37;;
4595;SDS011;2310;49.978;8.742;2023-06-10T23:22:15;12.73;;;11.53;;
4595;SDS011;2310;49.978;8.742;2023-06-10T23:26:17;13.43;;;11.80;;
4595;SDS011;2310;49.978;8.742;2023-06-10T23:30:18;13.17;;;12.07;;
4595;SDS011;2310;49.978;8.742;2023-06-10T23:34:20;12.57;;;11.40;;
4595;SDS011;2310;49.978;8.742;2023-06-10T23:38:22;12.70;;;11.60;;
4595;SDS011;2310;49.978;8.742;2023-06-10T23:42:24;12.43;;;11.33;;
4595;SDS011;2310;49.978;8.742;2023-06-10T23:46:26;13.93;;;12.37;;
4595;SDS011;2310;49.978;8.742;2023-06-10T23:50:27;13.30;;;12.00;;
4595;SDS011;2310;49.978;8.742;2023-06-10T23:54:30;14.00;;;12.70;;
4595;SDS011;2310;49.978;8.742;2023-06-10T23:58:31;13.70;;;12.50;;
